Valley City, ND

2:55 AM CST on February 12, 2016 (GMT -0600)
Valley City | | Change Station
CLOSE
Current Station
Airport
Location: Valley City,
Elevation: 1401 ft
Nearby Weather Stations

Elev 1401 ft 46.94 °N, 98.02 °W | Updated 20 minutes ago

Overcast
Overcast
7 °F
Feels Like -9 °F
N
12
Wind Variable Wind from NNW

Today
High -- | Low -- °F
--% Chance of Precip.
Yesterday
High -- | Low -- °F
Precip. -- in
Pressure 30.36 in
Visibility 10.0 miles
Clouds Scattered Clouds 2100 ft
Windchill -9 °F
Dew Point 3 °F
Humidity 85%
Rainfall 0.00 in
Snow Depth Not available.
7:41 AM 5:51 PM
Waxing Crescent, 18% visible
METAR KBAC 120835Z AUTO 34010KT 10SM SCT021 M14/M16 A3036 RMK AO2
Pressure 30.36 in
Visibility 10.0 miles
Clouds Scattered Clouds 2100 ft
Windchill -9 °F
Dew Point 3 °F
Humidity 85%
Rainfall 0.00 in
Snow Depth Not available.
7:41 AM 5:51 PM
Waxing Crescent, 18% visible
METAR KBAC 120835Z AUTO 34010KT 10SM SCT021 M14/M16 A3036 RMK AO2

10-Day Weather Forecast

Almanac

Astronomy

Feb. 12, 2016 Rise Set
Actual Time
Civil Twilight
Nautical Twilight
Astronomical Twilight
Moon
Length of Visible Light
Length of Day
Tomorrow will be .
, % of the Moon is Illuminated

Today's Extremes

State Highs State Lows

Community

WunderPhotos

Upload Photos

1,892,284 photos uploaded!

WunderBlog® & News

Nearby

Air Quality

  Air Quality AQ Index Pollutant
Not available.

Snow Depth

Station Depth Elevation

Earthquake Activity

City Distance Mag. Time & Date
Minimum magnitude displayed is 2.5.

Coastal Water Temperatures

Place Temperature

Stations

Nearby Weather Stations

Station Location Temp. Windchill Dew Point Humidity Wind Precip. Elev Updated Type
                   

Watches & Warnings

There are currently no watches in effect.